sensor_id;sensor_type;location;lat;lon;timestamp;P1;durP1;ratioP1;P2;durP2;ratioP2
23232;SDS011;11785;49.500;8.288;2023-04-25T00:01:55;4.30;;;3.50;;
23232;SDS011;11785;49.500;8.288;2023-04-25T00:04:21;4.20;;;3.22;;
23232;SDS011;11785;49.500;8.288;2023-04-25T00:06:47;4.28;;;3.38;;
23232;SDS011;11785;49.500;8.288;2023-04-25T00:09:13;4.35;;;3.35;;
23232;SDS011;11785;49.500;8.288;2023-04-25T00:11:39;4.75;;;3.20;;
23232;SDS011;11785;49.500;8.288;2023-04-25T00:14:05;4.05;;;2.97;;
23232;SDS011;11785;49.500;8.288;2023-04-25T00:16:31;4.00;;;2.90;;
23232;SDS011;11785;49.500;8.288;2023-04-25T00:18:59;3.03;;;2.72;;
23232;SDS011;11785;49.500;8.288;2023-04-25T00:21:25;2.90;;;2.60;;
23232;SDS011;11785;49.500;8.288;2023-04-25T00:23:52;3.75;;;3.03;;
23232;SDS011;11785;49.500;8.288;2023-04-25T00:26:17;3.75;;;2.97;;
23232;SDS011;11785;49.500;8.288;2023-04-25T00:28:43;5.55;;;3.25;;
23232;SDS011;11785;49.500;8.288;2023-04-25T00:31:08;5.07;;;2.95;;
23232;SDS011;11785;49.500;8.288;2023-04-25T00:33:34;4.57;;;3.30;;
23232;SDS011;11785;49.500;8.288;2023-04-25T00:36:00;6.30;;;3.05;;
23232;SDS011;11785;49.500;8.288;2023-04-25T00:38:25;3.40;;;2.50;;
23232;SDS011;11785;49.500;8.288;2023-04-25T00:40:51;3.50;;;2.90;;
23232;SDS011;11785;49.500;8.288;2023-04-25T00:43:17;4.38;;;2.88;;
23232;SDS011;11785;49.500;8.288;2023-04-25T00:45:43;2.63;;;2.42;;
23232;SDS011;11785;49.500;8.288;2023-04-25T00:48:11;4.75;;;3.10;;
23232;SDS011;11785;49.500;8.288;2023-04-25T00:50:38;3.25;;;2.95;;
23232;SDS011;11785;49.500;8.288;2023-04-25T00:53:04;3.30;;;2.60;;
23232;SDS011;11785;49.500;8.288;2023-04-25T00:55:30;2.95;;;2.58;;
23232;SDS011;11785;49.500;8.288;2023-04-25T00:57:56;4.03;;;2.92;;
23232;SDS011;11785;49.500;8.288;2023-04-25T01:00:22;5.68;;;2.90;;
23232;SDS011;11785;49.500;8.288;2023-04-25T01:02:48;3.50;;;2.90;;
23232;SDS011;11785;49.500;8.288;2023-04-25T01:05:14;3.25;;;2.53;;
23232;SDS011;11785;49.500;8.288;2023-04-25T01:07:40;6.28;;;3.05;;
23232;SDS011;11785;49.500;8.288;2023-04-25T01:10:06;4.10;;;2.78;;
23232;SDS011;11785;49.500;8.288;2023-04-25T01:12:32;3.67;;;2.58;;
23232;SDS011;11785;49.500;8.288;2023-04-25T01:14:58;7.03;;;3.20;;
23232;SDS011;11785;49.500;8.288;2023-04-25T01:17:24;4.72;;;3.22;;
23232;SDS011;11785;49.500;8.288;2023-04-25T01:19:49;3.10;;;2.53;;
23232;SDS011;11785;49.500;8.288;2023-04-25T01:22:15;3.90;;;3.13;;
23232;SDS011;11785;49.500;8.288;2023-04-25T01:24:42;4.90;;;3.38;;
23232;SDS011;11785;49.500;8.288;2023-04-25T01:27:08;4.97;;;3.25;;
23232;SDS011;11785;49.500;8.288;2023-04-25T01:29:34;5.65;;;4.00;;
23232;SDS011;11785;49.500;8.288;2023-04-25T01:32:01;5.38;;;3.67;;
23232;SDS011;11785;49.500;8.288;2023-04-25T01:34:26;6.63;;;4.80;;
23232;SDS011;11785;49.500;8.288;2023-04-25T01:36:52;6.28;;;5.28;;
23232;SDS011;11785;49.500;8.288;2023-04-25T01:39:18;9.15;;;5.57;;
23232;SDS011;11785;49.500;8.288;2023-04-25T01:41:48;8.77;;;5.85;;
23232;SDS011;11785;49.500;8.288;2023-04-25T01:44:14;9.18;;;5.72;;
23232;SDS011;11785;49.500;8.288;2023-04-25T01:46:39;9.32;;;6.53;;
23232;SDS011;11785;49.500;8.288;2023-04-25T01:49:05;8.90;;;6.80;;
23232;SDS011;11785;49.500;8.288;2023-04-25T01:51:31;8.32;;;6.10;;
23232;SDS011;11785;49.500;8.288;2023-04-25T01:53:57;11.73;;;6.93;;
23232;SDS011;11785;49.500;8.288;2023-04-25T01:56:23;9.50;;;6.63;;
23232;SDS011;11785;49.500;8.288;2023-04-25T01:58:49;9.85;;;6.95;;
23232;SDS011;11785;49.500;8.288;2023-04-25T02:01:14;11.00;;;6.95;;
23232;SDS011;11785;49.500;8.288;2023-04-25T02:03:40;11.23;;;7.75;;
23232;SDS011;11785;49.500;8.288;2023-04-25T02:06:06;12.80;;;7.65;;
23232;SDS011;11785;49.500;8.288;2023-04-25T02:08:31;9.98;;;7.32;;
23232;SDS011;11785;49.500;8.288;2023-04-25T02:10:57;9.32;;;7.13;;
23232;SDS011;11785;49.500;8.288;2023-04-25T02:13:23;11.60;;;7.38;;
23232;SDS011;11785;49.500;8.288;2023-04-25T02:15:48;10.63;;;7.05;;
23232;SDS011;11785;49.500;8.288;2023-04-25T02:18:14;11.43;;;7.57;;
23232;SDS011;11785;49.500;8.288;2023-04-25T02:20:41;10.88;;;7.75;;
23232;SDS011;11785;49.500;8.288;2023-04-25T02:23:07;12.02;;;8.07;;
23232;SDS011;11785;49.500;8.288;2023-04-25T02:25:32;14.80;;;8.38;;
23232;SDS011;11785;49.500;8.288;2023-04-25T02:27:58;11.40;;;8.13;;
23232;SDS011;11785;49.500;8.288;2023-04-25T02:30:28;14.05;;;9.02;;
23232;SDS011;11785;49.500;8.288;2023-04-25T02:32:53;12.68;;;7.80;;
23232;SDS011;11785;49.500;8.288;2023-04-25T02:35:19;12.38;;;7.78;;
23232;SDS011;11785;49.500;8.288;2023-04-25T02:37:44;12.77;;;8.38;;
23232;SDS011;11785;49.500;8.288;2023-04-25T02:40:10;11.15;;;7.60;;
23232;SDS011;11785;49.500;8.288;2023-04-25T02:42:36;10.80;;;8.02;;
23232;SDS011;11785;49.500;8.288;2023-04-25T02:45:02;9.90;;;7.45;;
23232;SDS011;11785;49.500;8.288;2023-04-25T02:47:28;11.88;;;8.43;;
23232;SDS011;11785;49.500;8.288;2023-04-25T02:49:54;12.23;;;8.18;;
23232;SDS011;11785;49.500;8.288;2023-04-25T02:52:19;10.90;;;7.40;;
23232;SDS011;11785;49.500;8.288;2023-04-25T02:54:46;10.05;;;7.90;;
23232;SDS011;11785;49.500;8.288;2023-04-25T02:57:11;11.02;;;7.65;;
23232;SDS011;11785;49.500;8.288;2023-04-25T02:59:37;10.65;;;7.65;;
23232;SDS011;11785;49.500;8.288;2023-04-25T03:02:02;10.43;;;8.10;;
23232;SDS011;11785;49.500;8.288;2023-04-25T03:04:28;11.93;;;7.93;;
23232;SDS011;11785;49.500;8.288;2023-04-25T03:06:53;12.38;;;7.88;;
23232;SDS011;11785;49.500;8.288;2023-04-25T03:09:19;10.65;;;7.88;;
23232;SDS011;11785;49.500;8.288;2023-04-25T03:11:45;10.10;;;7.63;;
23232;SDS011;11785;49.500;8.288;2023-04-25T03:14:11;11.40;;;8.38;;
23232;SDS011;11785;49.500;8.288;2023-04-25T03:16:37;12.98;;;8.48;;
23232;SDS011;11785;49.500;8.288;2023-04-25T03:19:03;11.27;;;8.30;;
23232;SDS011;11785;49.500;8.288;2023-04-25T03:21:29;9.07;;;6.75;;
23232;SDS011;11785;49.500;8.288;2023-04-25T03:24:00;10.52;;;7.65;;
23232;SDS011;11785;49.500;8.288;2023-04-25T03:26:27;10.27;;;6.30;;
23232;SDS011;11785;49.500;8.288;2023-04-25T03:28:52;10.05;;;6.78;;
23232;SDS011;11785;49.500;8.288;2023-04-25T03:31:18;9.98;;;6.53;;
23232;SDS011;11785;49.500;8.288;2023-04-25T03:33:43;10.85;;;7.40;;
23232;SDS011;11785;49.500;8.288;2023-04-25T03:36:09;10.55;;;7.30;;
23232;SDS011;11785;49.500;8.288;2023-04-25T03:38:34;10.73;;;8.35;;
23232;SDS011;11785;49.500;8.288;2023-04-25T03:41:01;10.77;;;7.65;;
23232;SDS011;11785;49.500;8.288;2023-04-25T03:43:27;10.25;;;7.68;;
23232;SDS011;11785;49.500;8.288;2023-04-25T03:45:52;11.63;;;8.23;;
23232;SDS011;11785;49.500;8.288;2023-04-25T03:48:18;12.00;;;8.30;;
23232;SDS011;11785;49.500;8.288;2023-04-25T03:50:46;10.82;;;7.53;;
23232;SDS011;11785;49.500;8.288;2023-04-25T03:53:12;13.55;;;8.20;;
23232;SDS011;11785;49.500;8.288;2023-04-25T03:55:37;11.43;;;8.07;;
23232;SDS011;11785;49.500;8.288;2023-04-25T03:58:03;11.95;;;8.43;;
23232;SDS011;11785;49.500;8.288;2023-04-25T04:00:28;13.13;;;7.95;;
23232;SDS011;11785;49.500;8.288;2023-04-25T04:02:54;10.93;;;7.82;;
23232;SDS011;11785;49.500;8.288;2023-04-25T04:05:20;12.02;;;7.40;;
23232;SDS011;11785;49.500;8.288;2023-04-25T04:07:46;10.68;;;7.72;;
23232;SDS011;11785;49.500;8.288;2023-04-25T04:10:11;11.30;;;8.27;;
23232;SDS011;11785;49.500;8.288;2023-04-25T04:12:37;10.48;;;7.57;;
23232;SDS011;11785;49.500;8.288;2023-04-25T04:15:04;11.70;;;7.85;;
23232;SDS011;11785;49.500;8.288;2023-04-25T04:17:31;14.68;;;8.07;;
23232;SDS011;11785;49.500;8.288;2023-04-25T04:19:56;12.57;;;8.82;;
23232;SDS011;11785;49.500;8.288;2023-04-25T04:22:22;11.90;;;8.30;;
23232;SDS011;11785;49.500;8.288;2023-04-25T04:24:49;12.65;;;8.60;;
23232;SDS011;11785;49.500;8.288;2023-04-25T04:27:18;11.20;;;8.13;;
23232;SDS011;11785;49.500;8.288;2023-04-25T04:29:44;13.40;;;8.25;;
23232;SDS011;11785;49.500;8.288;2023-04-25T04:32:10;11.98;;;8.30;;
23232;SDS011;11785;49.500;8.288;2023-04-25T04:34:37;12.23;;;8.55;;
23232;SDS011;11785;49.500;8.288;2023-04-25T04:37:04;14.45;;;8.45;;
23232;SDS011;11785;49.500;8.288;2023-04-25T04:39:30;11.93;;;8.60;;
23232;SDS011;11785;49.500;8.288;2023-04-25T04:41:55;13.70;;;8.98;;
23232;SDS011;11785;49.500;8.288;2023-04-25T04:44:21;13.18;;;8.68;;
23232;SDS011;11785;49.500;8.288;2023-04-25T04:46:47;12.20;;;8.48;;
23232;SDS011;11785;49.500;8.288;2023-04-25T04:49:13;13.88;;;8.45;;
23232;SDS011;11785;49.500;8.288;2023-04-25T04:51:39;11.82;;;8.30;;
23232;SDS011;11785;49.500;8.288;2023-04-25T04:54:06;10.65;;;7.97;;
23232;SDS011;11785;49.500;8.288;2023-04-25T04:56:31;11.43;;;7.95;;
23232;SDS011;11785;49.500;8.288;2023-04-25T04:58:57;11.43;;;7.80;;
23232;SDS011;11785;49.500;8.288;2023-04-25T05:01:24;13.30;;;8.40;;
23232;SDS011;11785;49.500;8.288;2023-04-25T05:03:50;11.30;;;8.23;;
23232;SDS011;11785;49.500;8.288;2023-04-25T05:06:16;11.98;;;8.57;;
23232;SDS011;11785;49.500;8.288;2023-04-25T05:08:43;12.13;;;8.93;;
23232;SDS011;11785;49.500;8.288;2023-04-25T05:11:09;19.30;;;9.60;;
23232;SDS011;11785;49.500;8.288;2023-04-25T05:13:35;14.38;;;8.18;;
23232;SDS011;11785;49.500;8.288;2023-04-25T05:16:01;13.75;;;7.60;;
23232;SDS011;11785;49.500;8.288;2023-04-25T05:18:26;10.55;;;8.02;;
23232;SDS011;11785;49.500;8.288;2023-04-25T05:20:52;10.32;;;7.55;;
23232;SDS011;11785;49.500;8.288;2023-04-25T05:23:18;11.75;;;8.18;;
23232;SDS011;11785;49.500;8.288;2023-04-25T05:25:43;10.73;;;8.02;;
23232;SDS011;11785;49.500;8.288;2023-04-25T05:28:10;10.77;;;7.80;;
23232;SDS011;11785;49.500;8.288;2023-04-25T05:30:37;11.13;;;8.00;;
23232;SDS011;11785;49.500;8.288;2023-04-25T05:33:02;9.40;;;7.65;;
23232;SDS011;11785;49.500;8.288;2023-04-25T05:35:28;11.77;;;7.68;;
23232;SDS011;11785;49.500;8.288;2023-04-25T05:37:53;9.95;;;7.15;;
23232;SDS011;11785;49.500;8.288;2023-04-25T05:40:19;13.05;;;7.72;;
23232;SDS011;11785;49.500;8.288;2023-04-25T05:42:45;13.48;;;8.02;;
23232;SDS011;11785;49.500;8.288;2023-04-25T05:45:11;11.75;;;8.07;;
23232;SDS011;11785;49.500;8.288;2023-04-25T05:47:36;11.95;;;8.00;;
23232;SDS011;11785;49.500;8.288;2023-04-25T05:50:02;12.43;;;8.27;;
23232;SDS011;11785;49.500;8.288;2023-04-25T05:52:28;12.30;;;8.52;;
23232;SDS011;11785;49.500;8.288;2023-04-25T05:54:53;15.60;;;9.38;;
23232;SDS011;11785;49.500;8.288;2023-04-25T05:57:22;11.27;;;8.45;;
23232;SDS011;11785;49.500;8.288;2023-04-25T05:59:49;12.05;;;8.73;;
23232;SDS011;11785;49.500;8.288;2023-04-25T06:02:15;13.77;;;9.05;;
23232;SDS011;11785;49.500;8.288;2023-04-25T06:04:41;16.23;;;8.98;;
23232;SDS011;11785;49.500;8.288;2023-04-25T06:07:06;12.30;;;8.77;;
23232;SDS011;11785;49.500;8.288;2023-04-25T06:09:32;10.75;;;7.97;;
23232;SDS011;11785;49.500;8.288;2023-04-25T06:11:57;13.93;;;8.95;;
23232;SDS011;11785;49.500;8.288;2023-04-25T06:14:23;12.00;;;8.88;;
23232;SDS011;11785;49.500;8.288;2023-04-25T06:16:48;13.57;;;8.32;;
23232;SDS011;11785;49.500;8.288;2023-04-25T06:19:14;14.55;;;8.93;;
23232;SDS011;11785;49.500;8.288;2023-04-25T06:21:39;10.95;;;7.93;;
23232;SDS011;11785;49.500;8.288;2023-04-25T06:24:06;11.70;;;8.65;;
23232;SDS011;11785;49.500;8.288;2023-04-25T06:26:32;10.98;;;7.82;;
23232;SDS011;11785;49.500;8.288;2023-04-25T06:28:57;11.88;;;7.47;;
23232;SDS011;11785;49.500;8.288;2023-04-25T06:31:23;13.85;;;7.28;;
23232;SDS011;11785;49.500;8.288;2023-04-25T06:33:48;15.77;;;7.75;;
23232;SDS011;11785;49.500;8.288;2023-04-25T06:36:14;13.75;;;6.65;;
23232;SDS011;11785;49.500;8.288;2023-04-25T06:38:39;9.70;;;6.45;;
23232;SDS011;11785;49.500;8.288;2023-04-25T06:41:05;12.68;;;6.70;;
23232;SDS011;11785;49.500;8.288;2023-04-25T06:43:31;16.85;;;7.90;;
23232;SDS011;11785;49.500;8.288;2023-04-25T06:45:58;15.02;;;7.60;;
23232;SDS011;11785;49.500;8.288;2023-04-25T06:48:25;11.35;;;6.97;;
23232;SDS011;11785;49.500;8.288;2023-04-25T06:50:51;12.77;;;7.20;;
23232;SDS011;11785;49.500;8.288;2023-04-25T06:53:17;15.57;;;8.57;;
23232;SDS011;11785;49.500;8.288;2023-04-25T06:55:43;15.68;;;8.57;;
23232;SDS011;11785;49.500;8.288;2023-04-25T06:58:09;15.18;;;9.90;;
23232;SDS011;11785;49.500;8.288;2023-04-25T07:00:34;19.15;;;9.68;;
23232;SDS011;11785;49.500;8.288;2023-04-25T07:03:01;16.05;;;9.35;;
23232;SDS011;11785;49.500;8.288;2023-04-25T07:05:27;21.05;;;10.35;;
23232;SDS011;11785;49.500;8.288;2023-04-25T07:07:52;18.02;;;9.75;;
23232;SDS011;11785;49.500;8.288;2023-04-25T07:10:18;16.35;;;9.88;;
23232;SDS011;11785;49.500;8.288;2023-04-25T07:12:43;17.27;;;9.77;;
23232;SDS011;11785;49.500;8.288;2023-04-25T07:15:09;19.73;;;9.00;;
23232;SDS011;11785;49.500;8.288;2023-04-25T07:17:36;23.08;;;8.32;;
23232;SDS011;11785;49.500;8.288;2023-04-25T07:20:02;15.75;;;7.40;;
23232;SDS011;11785;49.500;8.288;2023-04-25T07:22:28;14.73;;;7.22;;
23232;SDS011;11785;49.500;8.288;2023-04-25T07:24:54;17.55;;;7.28;;
23232;SDS011;11785;49.500;8.288;2023-04-25T07:27:20;21.02;;;7.13;;
23232;SDS011;11785;49.500;8.288;2023-04-25T07:29:45;13.57;;;6.28;;
23232;SDS011;11785;49.500;8.288;2023-04-25T07:32:11;14.02;;;5.32;;
23232;SDS011;11785;49.500;8.288;2023-04-25T07:34:38;14.35;;;5.30;;
23232;SDS011;11785;49.500;8.288;2023-04-25T07:37:04;16.50;;;5.85;;
23232;SDS011;11785;49.500;8.288;2023-04-25T07:39:30;11.90;;;5.32;;
23232;SDS011;11785;49.500;8.288;2023-04-25T07:41:56;16.98;;;4.90;;
23232;SDS011;11785;49.500;8.288;2023-04-25T07:44:23;12.80;;;5.28;;
23232;SDS011;11785;49.500;8.288;2023-04-25T07:46:49;12.32;;;5.30;;
23232;SDS011;11785;49.500;8.288;2023-04-25T07:49:14;15.20;;;5.65;;
23232;SDS011;11785;49.500;8.288;2023-04-25T07:51:40;16.80;;;6.32;;
23232;SDS011;11785;49.500;8.288;2023-04-25T07:54:08;14.18;;;5.63;;
23232;SDS011;11785;49.500;8.288;2023-04-25T07:56:34;14.55;;;5.68;;
23232;SDS011;11785;49.500;8.288;2023-04-25T07:59:00;15.63;;;5.93;;
23232;SDS011;11785;49.500;8.288;2023-04-25T08:01:26;19.92;;;6.65;;
23232;SDS011;11785;49.500;8.288;2023-04-25T08:03:52;12.88;;;5.43;;
23232;SDS011;11785;49.500;8.288;2023-04-25T08:06:18;15.82;;;6.18;;
23232;SDS011;11785;49.500;8.288;2023-04-25T08:08:43;15.55;;;6.38;;
23232;SDS011;11785;49.500;8.288;2023-04-25T08:11:09;18.52;;;5.95;;
23232;SDS011;11785;49.500;8.288;2023-04-25T08:13:35;14.05;;;5.72;;
23232;SDS011;11785;49.500;8.288;2023-04-25T08:16:01;16.25;;;6.10;;
23232;SDS011;11785;49.500;8.288;2023-04-25T08:18:26;17.27;;;6.97;;
23232;SDS011;11785;49.500;8.288;2023-04-25T08:20:52;14.77;;;6.00;;
23232;SDS011;11785;49.500;8.288;2023-04-25T08:23:17;16.13;;;6.10;;
23232;SDS011;11785;49.500;8.288;2023-04-25T08:25:43;13.27;;;4.22;;
23232;SDS011;11785;49.500;8.288;2023-04-25T08:28:08;9.40;;;3.65;;
23232;SDS011;11785;49.500;8.288;2023-04-25T08:30:34;15.95;;;4.10;;
23232;SDS011;11785;49.500;8.288;2023-04-25T08:33:00;8.23;;;4.10;;
23232;SDS011;11785;49.500;8.288;2023-04-25T08:35:25;10.98;;;4.45;;
23232;SDS011;11785;49.500;8.288;2023-04-25T08:37:51;10.30;;;4.50;;
23232;SDS011;11785;49.500;8.288;2023-04-25T08:40:16;13.55;;;4.75;;
23232;SDS011;11785;49.500;8.288;2023-04-25T08:42:42;14.20;;;4.82;;
23232;SDS011;11785;49.500;8.288;2023-04-25T08:45:08;14.15;;;4.72;;
23232;SDS011;11785;49.500;8.288;2023-04-25T08:47:35;17.67;;;4.55;;
23232;SDS011;11785;49.500;8.288;2023-04-25T08:50:03;14.20;;;4.97;;
23232;SDS011;11785;49.500;8.288;2023-04-25T08:52:32;11.18;;;4.70;;
23232;SDS011;11785;49.500;8.288;2023-04-25T08:55:02;11.05;;;4.50;;
23232;SDS011;11785;49.500;8.288;2023-04-25T08:57:29;10.80;;;5.07;;
23232;SDS011;11785;49.500;8.288;2023-04-25T08:59:56;13.13;;;4.82;;
23232;SDS011;11785;49.500;8.288;2023-04-25T09:02:23;9.65;;;4.65;;
23232;SDS011;11785;49.500;8.288;2023-04-25T09:04:50;8.63;;;3.90;;
23232;SDS011;11785;49.500;8.288;2023-04-25T09:07:15;13.48;;;4.15;;
23232;SDS011;11785;49.500;8.288;2023-04-25T09:09:43;7.47;;;3.88;;
23232;SDS011;11785;49.500;8.288;2023-04-25T09:12:09;9.90;;;3.78;;
23232;SDS011;11785;49.500;8.288;2023-04-25T09:14:35;8.85;;;3.55;;
23232;SDS011;11785;49.500;8.288;2023-04-25T09:17:01;12.10;;;3.97;;
23232;SDS011;11785;49.500;8.288;2023-04-25T09:19:30;10.63;;;3.90;;
23232;SDS011;11785;49.500;8.288;2023-04-25T09:21:57;11.32;;;4.35;;
23232;SDS011;11785;49.500;8.288;2023-04-25T09:24:57;12.70;;;5.15;;
23232;SDS011;11785;49.500;8.288;2023-04-25T09:27:20;10.98;;;3.95;;
23232;SDS011;11785;49.500;8.288;2023-04-25T09:29:50;9.13;;;3.80;;
23232;SDS011;11785;49.500;8.288;2023-04-25T09:32:23;10.70;;;4.40;;
23232;SDS011;11785;49.500;8.288;2023-04-25T09:34:50;13.65;;;4.10;;
23232;SDS011;11785;49.500;8.288;2023-04-25T09:37:17;9.25;;;4.00;;
23232;SDS011;11785;49.500;8.288;2023-04-25T09:39:47;12.05;;;4.05;;
23232;SDS011;11785;49.500;8.288;2023-04-25T09:42:21;12.00;;;4.10;;
23232;SDS011;11785;49.500;8.288;2023-04-25T09:44:49;9.32;;;4.07;;
23232;SDS011;11785;49.500;8.288;2023-04-25T09:47:17;6.88;;;3.92;;
23232;SDS011;11785;49.500;8.288;2023-04-25T09:49:43;10.45;;;4.40;;
23232;SDS011;11785;49.500;8.288;2023-04-25T09:52:15;11.45;;;4.70;;
23232;SDS011;11785;49.500;8.288;2023-04-25T09:54:45;12.38;;;4.80;;
23232;SDS011;11785;49.500;8.288;2023-04-25T09:57:15;8.43;;;4.38;;
23232;SDS011;11785;49.500;8.288;2023-04-25T09:59:46;8.65;;;4.72;;
23232;SDS011;11785;49.500;8.288;2023-04-25T10:02:20;8.82;;;4.18;;
23232;SDS011;11785;49.500;8.288;2023-04-25T10:04:49;8.60;;;4.85;;
23232;SDS011;11785;49.500;8.288;2023-04-25T10:07:18;12.18;;;4.32;;
23232;SDS011;11785;49.500;8.288;2023-04-25T10:09:47;9.02;;;4.82;;
23232;SDS011;11785;49.500;8.288;2023-04-25T10:12:15;8.48;;;3.55;;
23232;SDS011;11785;49.500;8.288;2023-04-25T10:14:41;12.75;;;4.45;;
23232;SDS011;11785;49.500;8.288;2023-04-25T10:17:08;9.68;;;3.90;;
23232;SDS011;11785;49.500;8.288;2023-04-25T10:19:35;8.75;;;4.47;;
23232;SDS011;11785;49.500;8.288;2023-04-25T10:22:07;6.80;;;4.28;;
23232;SDS011;11785;49.500;8.288;2023-04-25T10:24:37;9.43;;;4.80;;
23232;SDS011;11785;49.500;8.288;2023-04-25T10:27:04;9.23;;;4.10;;
23232;SDS011;11785;49.500;8.288;2023-04-25T10:29:30;7.50;;;4.40;;
23232;SDS011;11785;49.500;8.288;2023-04-25T10:31:56;8.07;;;3.83;;
23232;SDS011;11785;49.500;8.288;2023-04-25T10:34:41;6.90;;;3.47;;
23232;SDS011;11785;49.500;8.288;2023-04-25T10:37:09;7.18;;;3.78;;
23232;SDS011;11785;49.500;8.288;2023-04-25T10:39:35;7.70;;;4.40;;
23232;SDS011;11785;49.500;8.288;2023-04-25T10:42:03;7.82;;;4.80;;
23232;SDS011;11785;49.500;8.288;2023-04-25T10:44:29;10.82;;;4.30;;
23232;SDS011;11785;49.500;8.288;2023-04-25T10:46:56;10.38;;;4.15;;
23232;SDS011;11785;49.500;8.288;2023-04-25T10:49:30;7.93;;;3.72;;
23232;SDS011;11785;49.500;8.288;2023-04-25T10:52:13;7.70;;;3.97;;
23232;SDS011;11785;49.500;8.288;2023-04-25T10:54:47;9.00;;;3.97;;
23232;SDS011;11785;49.500;8.288;2023-04-25T10:57:32;7.78;;;3.58;;
23232;SDS011;11785;49.500;8.288;2023-04-25T11:02:43;7.32;;;3.63;;
23232;SDS011;11785;49.500;8.288;2023-04-25T11:05:20;6.75;;;4.05;;
23232;SDS011;11785;49.500;8.288;2023-04-25T11:07:55;10.60;;;3.85;;
23232;SDS011;11785;49.500;8.288;2023-04-25T11:10:25;5.80;;;3.50;;
23232;SDS011;11785;49.500;8.288;2023-04-25T11:12:58;4.68;;;3.60;;
23232;SDS011;11785;49.500;8.288;2023-04-25T11:15:25;10.50;;;3.83;;
23232;SDS011;11785;49.500;8.288;2023-04-25T11:17:51;5.50;;;3.20;;
23232;SDS011;11785;49.500;8.288;2023-04-25T11:20:20;6.03;;;3.45;;
23232;SDS011;11785;49.500;8.288;2023-04-25T11:22:46;4.90;;;3.20;;
23232;SDS011;11785;49.500;8.288;2023-04-25T11:25:13;7.78;;;3.90;;
23232;SDS011;11785;49.500;8.288;2023-04-25T11:27:50;6.28;;;3.35;;
23232;SDS011;11785;49.500;8.288;2023-04-25T11:30:17;5.90;;;3.53;;
23232;SDS011;11785;49.500;8.288;2023-04-25T11:32:43;3.60;;;2.95;;
23232;SDS011;11785;49.500;8.288;2023-04-25T11:35:09;5.10;;;3.17;;
23232;SDS011;11785;49.500;8.288;2023-04-25T11:37:35;4.85;;;3.70;;
23232;SDS011;11785;49.500;8.288;2023-04-25T11:40:02;9.85;;;4.07;;
23232;SDS011;11785;49.500;8.288;2023-04-25T11:42:28;6.35;;;3.60;;
23232;SDS011;11785;49.500;8.288;2023-04-25T11:44:55;8.25;;;3.90;;
23232;SDS011;11785;49.500;8.288;2023-04-25T11:47:20;6.63;;;3.45;;
23232;SDS011;11785;49.500;8.288;2023-04-25T11:49:53;6.60;;;3.80;;
23232;SDS011;11785;49.500;8.288;2023-04-25T11:52:19;4.85;;;3.30;;
23232;SDS011;11785;49.500;8.288;2023-04-25T11:54:44;4.47;;;3.58;;
23232;SDS011;11785;49.500;8.288;2023-04-25T11:57:11;6.30;;;3.65;;
23232;SDS011;11785;49.500;8.288;2023-04-25T11:59:36;6.60;;;3.42;;
23232;SDS011;11785;49.500;8.288;2023-04-25T12:02:02;9.95;;;4.05;;
23232;SDS011;11785;49.500;8.288;2023-04-25T12:04:29;8.48;;;3.53;;
23232;SDS011;11785;49.500;8.288;2023-04-25T12:06:56;6.03;;;3.70;;
23232;SDS011;11785;49.500;8.288;2023-04-25T12:09:29;7.38;;;3.88;;
23232;SDS011;11785;49.500;8.288;2023-04-25T12:11:57;7.18;;;3.65;;
23232;SDS011;11785;49.500;8.288;2023-04-25T12:14:28;5.72;;;3.60;;
23232;SDS011;11785;49.500;8.288;2023-04-25T12:16:56;5.90;;;3.38;;
23232;SDS011;11785;49.500;8.288;2023-04-25T12:19:23;4.22;;;3.22;;
23232;SDS011;11785;49.500;8.288;2023-04-25T12:21:49;4.03;;;2.67;;
23232;SDS011;11785;49.500;8.288;2023-04-25T12:24:15;5.07;;;3.03;;
23232;SDS011;11785;49.500;8.288;2023-04-25T12:26:58;6.93;;;3.55;;
23232;SDS011;11785;49.500;8.288;2023-04-25T12:29:25;5.38;;;3.03;;
23232;SDS011;11785;49.500;8.288;2023-04-25T12:31:53;5.22;;;2.92;;
23232;SDS011;11785;49.500;8.288;2023-04-25T12:34:19;5.32;;;3.03;;
23232;SDS011;11785;49.500;8.288;2023-04-25T12:36:46;8.68;;;3.30;;
23232;SDS011;11785;49.500;8.288;2023-04-25T12:39:15;7.88;;;3.10;;
23232;SDS011;11785;49.500;8.288;2023-04-25T12:41:46;7.45;;;3.20;;
23232;SDS011;11785;49.500;8.288;2023-04-25T12:44:13;4.75;;;3.25;;
23232;SDS011;11785;49.500;8.288;2023-04-25T12:46:39;7.10;;;3.17;;
23232;SDS011;11785;49.500;8.288;2023-04-25T12:49:06;6.38;;;3.33;;
23232;SDS011;11785;49.500;8.288;2023-04-25T12:51:33;10.05;;;4.00;;
23232;SDS011;11785;49.500;8.288;2023-04-25T12:54:02;9.02;;;2.90;;
23232;SDS011;11785;49.500;8.288;2023-04-25T12:56:29;8.38;;;3.45;;
23232;SDS011;11785;49.500;8.288;2023-04-25T12:58:55;7.53;;;3.45;;
23232;SDS011;11785;49.500;8.288;2023-04-25T13:01:22;9.80;;;4.40;;
23232;SDS011;11785;49.500;8.288;2023-04-25T13:03:48;8.35;;;3.70;;
23232;SDS011;11785;49.500;8.288;2023-04-25T13:06:14;9.02;;;3.70;;
23232;SDS011;11785;49.500;8.288;2023-04-25T13:08:40;11.35;;;3.80;;
23232;SDS011;11785;49.500;8.288;2023-04-25T13:11:07;10.15;;;3.83;;
23232;SDS011;11785;49.500;8.288;2023-04-25T13:13:33;13.70;;;4.00;;
23232;SDS011;11785;49.500;8.288;2023-04-25T13:16:03;11.27;;;4.60;;
23232;SDS011;11785;49.500;8.288;2023-04-25T13:18:32;6.38;;;3.47;;
23232;SDS011;11785;49.500;8.288;2023-04-25T13:20:58;9.80;;;4.55;;
23232;SDS011;11785;49.500;8.288;2023-04-25T13:23:25;8.32;;;4.10;;
23232;SDS011;11785;49.500;8.288;2023-04-25T13:25:51;10.43;;;3.63;;
23232;SDS011;11785;49.500;8.288;2023-04-25T13:28:17;11.85;;;3.88;;
23232;SDS011;11785;49.500;8.288;2023-04-25T13:30:43;10.95;;;4.80;;
23232;SDS011;11785;49.500;8.288;2023-04-25T13:33:09;6.80;;;3.70;;
23232;SDS011;11785;49.500;8.288;2023-04-25T13:35:35;9.20;;;3.60;;
23232;SDS011;11785;49.500;8.288;2023-04-25T13:38:01;9.38;;;3.50;;
23232;SDS011;11785;49.500;8.288;2023-04-25T13:40:27;14.23;;;3.70;;
23232;SDS011;11785;49.500;8.288;2023-04-25T13:42:53;5.85;;;2.92;;
23232;SDS011;11785;49.500;8.288;2023-04-25T13:45:20;8.35;;;3.70;;
23232;SDS011;11785;49.500;8.288;2023-04-25T13:47:45;11.55;;;4.50;;
23232;SDS011;11785;49.500;8.288;2023-04-25T13:50:11;11.25;;;3.85;;
23232;SDS011;11785;49.500;8.288;2023-04-25T13:52:37;7.40;;;3.15;;
23232;SDS011;11785;49.500;8.288;2023-04-25T13:55:02;9.77;;;3.80;;
23232;SDS011;11785;49.500;8.288;2023-04-25T13:57:30;6.25;;;3.55;;
23232;SDS011;11785;49.500;8.288;2023-04-25T13:59:56;14.35;;;4.10;;
23232;SDS011;11785;49.500;8.288;2023-04-25T14:02:21;5.68;;;3.28;;
23232;SDS011;11785;49.500;8.288;2023-04-25T14:04:47;9.57;;;3.97;;
23232;SDS011;11785;49.500;8.288;2023-04-25T14:07:13;8.13;;;3.72;;
23232;SDS011;11785;49.500;8.288;2023-04-25T14:09:41;9.65;;;3.80;;
23232;SDS011;11785;49.500;8.288;2023-04-25T14:12:06;8.73;;;4.30;;
23232;SDS011;11785;49.500;8.288;2023-04-25T14:14:32;7.55;;;3.97;;
23232;SDS011;11785;49.500;8.288;2023-04-25T14:16:58;10.48;;;3.55;;
23232;SDS011;11785;49.500;8.288;2023-04-25T14:19:23;9.45;;;4.00;;
23232;SDS011;11785;49.500;8.288;2023-04-25T14:21:49;9.45;;;3.47;;
23232;SDS011;11785;49.500;8.288;2023-04-25T14:24:15;10.35;;;3.22;;
23232;SDS011;11785;49.500;8.288;2023-04-25T14:26:40;8.40;;;3.08;;
23232;SDS011;11785;49.500;8.288;2023-04-25T14:29:07;9.10;;;3.40;;
23232;SDS011;11785;49.500;8.288;2023-04-25T14:31:34;10.80;;;3.60;;
23232;SDS011;11785;49.500;8.288;2023-04-25T14:34:00;11.77;;;4.43;;
23232;SDS011;11785;49.500;8.288;2023-04-25T14:36:30;5.75;;;3.53;;
23232;SDS011;11785;49.500;8.288;2023-04-25T14:38:56;18.38;;;4.43;;
23232;SDS011;11785;49.500;8.288;2023-04-25T14:41:22;6.32;;;3.58;;